Weather observations for the past three days for
Watsonville, Watsonville Municipal Airport
Imperial (Metric)
Date Time (pdt) Wind (mph) Vis. (mi.) Weather Sky Cond. Temperature (ºF) Relative Humidity Wind Chill (°F) Heat Index (°F) Pressure Precipitation (in)
Air Dwpt 6 hour altimeter (in) sea level (mb) 1 hr 3 hr 6 hr
Max. Min.
04 11:53 SW 12 10.00 A Few Clouds FEW050 62.1 46.9 58% 30.01 1016.2
04 10:53 SW 9 10.00 A Few Clouds FEW023 61 48 62.1 46.9 63% 30.01 1016.1
04 09:53 Calm 10.00 Partly Cloudy FEW020 SCT041 61 48.9 65% 30 1015.7
04 08:53 Calm 10.00 Overcast OVC013 55.9 48 75% 30 1016.0
04 07:53 E 3 10.00 Mostly Cloudy BKN014 53.1 48 83% 30 1015.9
04 06:53 Calm 10.00 Overcast OVC024 50 46 86% 30 1015.7
04 05:53 NW 3 10.00 A Few Clouds FEW023 48 46 93% 29.98 1015.2
04 04:53 N 3 10.00 Overcast FEW015 SCT026 OVC046 50 46 50 46.9 86% 29.98 1015.3
04 03:53 N 5 10.00 Overcast FEW012 BKN029 OVC048 48 45 89% 47 29.98 1015.3
04 02:53 Calm 10.00 Mostly Cloudy FEW016 BKN049 48 45 89% 29.99 1015.4
04 01:53 Calm 10.00 Overcast OVC049 48 44.1 86% 29.99 1015.6
04 00:53 N 3 10.00 Fair CLR 48.9 45 86% 30 1015.9
03 23:53 Calm 10.00 Fair CLR 48.9 45 86% 29.99 1015.6
03 22:53 N 3 10.00 Fair CLR 50 46 60.1 50 86% 30 1015.7
03 21:53 N 3 10.00 A Few Clouds FEW017 53.1 48 83% 29.99 1015.4
03 20:53 W 5 10.00 Fair CLR 52 46.9 83% 29.97 1014.7
03 19:53 W 6 10.00 Fair CLR 54 46 75% 29.95 1014.1
03 18:53 W 7 10.00 Fair CLR 57.9 46 65% 29.95 1014.0
03 17:53 W 10 10.00 Overcast OVC050 59 48 67% 29.94 1013.9
03 16:53 SW 8 10.00 Overcast OVC050 60.1 46 64.9 60.1 60% 29.94 1013.8
03 15:53 W 13 G 21 10.00 Fair CLR 63 44.1 50% 29.94 1013.8
03 14:53 W 10 G 20 10.00 Overcast OVC048 62.1 46 56% 29.95 1014.1
03 13:53 SW 10 G 16 10.00 Mostly Cloudy FEW021 SCT027 BKN050 64 48.9 58% 29.94 1013.9
03 12:53 SW 10 10.00 Overcast SCT017 OVC047 60.1 50 70% 29.96 1014.4
03 11:53 W 12 10.00 Mostly Cloudy FEW025 BKN049 62.1 48.9 62% 29.95 1014.3
03 10:53 W 12 G 18 10.00 Overcast FEW022 OVC047 60.1 48 61 53.1 65% 29.95 1014.2
03 09:53 W 5 10.00 Overcast FEW020 OVC045 60.1 48 65% 29.94 1013.9
03 08:53 W 6 10.00 Overcast FEW009 BKN024 OVC029 55 51.1 87% 29.94 1014.0
03 07:53 SW 7 7.00 Light Rain SCT008 BKN012 OVC017 53.1 51.1 93% 29.93 1013.5
03 06:53 W 3 10.00 Overcast OVC032 54 50 87% 29.91 1012.7
03 05:53 Calm 10.00 Overcast FEW009 OVC031 53.1 50 89% 29.89 1012.1
03 04:53 W 3 10.00 Overcast SCT019 OVC026 53.1 50 55 53.1 89% 29.88 1011.8
03 03:53 Calm 10.00 Overcast OVC020 54 50 87% 29.88 1011.9
03 02:53 W 3 10.00 Overcast OVC018 54 48.9 83% 29.88 1011.8
03 01:53 Calm 10.00 Overcast OVC017 55 48.9 80% 29.89 1012.1
03 00:53 Calm 10.00 Overcast OVC018 55 48.9 80% 29.9 1012.5
02 23:53 E 5 10.00 Overcast OVC019 55 48.9 80% 29.9 1012.5
02 22:53 E 5 10.00 Overcast OVC019 55 48 62.1 54 77% 29.91 1012.6
02 21:53 E 7 10.00 Mostly Cloudy BKN022 55 48.9 80% 29.91 1012.9
02 20:53 SE 6 10.00 Overcast OVC020 55 48.9 80% 29.9 1012.3
02 19:53 S 6 10.00 A Few Clouds FEW020 54 48.9 83% 29.89 1011.9
02 18:53 SW 8 10.00 Mostly Cloudy BKN021 55.9 48.9 77% 29.88 1011.9
02 17:53 SW 10 10.00 Fair CLR 57.9 48.9 72% 29.89 1012.0
02 16:53 SW 10 10.00 Fair CLR 61 50 62.1 57 67% 29.89 1012.2
02 15:53 SW 8 10.00 Partly Cloudy SCT017 62.1 51.1 67% 29.91 1012.9
02 14:53 W 9 10.00 Overcast OVC016 60.1 51.1 72% 29.95 1014.0
02 13:53 SW 7 10.00 Overcast OVC018 61 51.1 70% 29.95 1014.2
02 12:53 W 7 10.00 Overcast OVC014 59 51.1 75% 29.98 1015.2
02 11:53 SW 8 10.00 Overcast OVC014 57 50 78% 29.99 1015.4
02 10:53 SW 5 10.00 Overcast OVC014 57 50 57 53.1 78% 29.98 1015.3
02 09:53 SW 8 10.00 Overcast OVC014 55 50 83% 29.98 1015.0
02 08:53 W 5 9.00 Overcast OVC010 54 51.1 90% 29.97 1014.8
02 07:53 SW 3 7.00 Overcast OVC006 53.1 51.1 93% 29.95 1014.2
02 06:53 Calm 4.00 Fog/Mist OVC008 53.1 52 96% 29.94 1013.9
02 05:53 Calm 5.00 Fog/Mist OVC005 53.1 51.1 93% 29.94 1013.8
02 04:53 NE 3 5.00 Fog/Mist OVC007 54 51.1 55 53.1 90% 29.92 1013.2
02 03:53 E 3 7.00 Overcast OVC008 54 51.1 90% 29.93 1013.4
02 02:53 E 3 10.00 Overcast OVC008 54 50 87% 29.93 1013.6
02 01:53 SE 3 10.00 Overcast OVC009 54 50 87% 29.95 1014.2
02 00:53 E 7 10.00 Overcast OVC008 55 51.1 87% 29.96 1014.5
01 23:53 E 7 10.00 Overcast OVC009 55 51.1 87% 29.96 1014.6
01 22:53 E 8 10.00 Overcast OVC008 55 51.1 64.9 54 87% 29.97 1014.7
01 21:53 E 7 10.00 Overcast OVC008 55 51.1 87% 29.97 1014.7
01 20:53 E 10 10.00 Overcast OVC008 55 51.1 87% 29.95 1014.2
01 19:53 SE 8 10.00 Fair CLR 55.9 52 87% 29.93 1013.5
01 18:53 SE 8 10.00 Fair CLR 60.1 52 75% 29.93 1013.3
01 17:53 S 9 10.00 Fair CLR 63 51.1 65% 29.92 1013.2
01 16:53 SW 7 10.00 Fair CLR 64.9 53.1 66.9 55.9 66% 29.93 1013.4
01 15:53 Vrbl 7 10.00 Fair CLR 66 54 65% 29.94 1013.7
01 14:53 S 6 10.00 Fair CLR 64.9 54 68% 29.97 1014.7
01 13:53 SW 9 10.00 Fair CLR 64 53.1 68% 29.98 1015.1
01 12:53 SW 7 10.00 Fair CLR 62.1 53.1 73% 29.99 1015.5
Date Time (pdt) Wind (mph) Vis. (mi.) Weather Sky Cond. Air Dwpt Max. Min. Relative Humidity Wind Chill (°F) Heat Index (°F) altimeter (in) sea level (mb) 1 hr 3 hr 6 hr
6 hour
Temperature (ºF) Pressure Precipitation (in)